Time;durP1;ratioP1;P1;durP2;ratioP2;P2;SDS_P1;SDS_P2;PMS_P1;PMS_P2;Temp;Humidity;BMP_temperature;BMP_pressure;BME280_temperature;BME280_humidity;BME280_pressure;Samples;Min_cycle;Max_cycle;Signal;HPM_P1;HPM_P2
2021/08/17 00:00:09;;;;;;;17.20;5.40;;;16.80;99.90;;;;;;2086186;28;20485;-65
2021/08/17 00:01:10;;;;;;;15.35;5.07;;;16.80;99.90;;;;;;2086323;28;20022;-65
2021/08/17 00:02:11;;;;;;;14.10;5.20;;;16.80;99.90;;;;;;2087244;28;20056;-65
2021/08/17 00:03:11;;;;;;;20.15;5.03;;;16.80;99.90;;;;;;2086575;28;20408;-65
2021/08/17 00:04:12;;;;;;;16.00;5.13;;;16.80;99.90;;;;;;2086984;28;20025;-65
2021/08/17 00:05:13;;;;;;;18.98;5.53;;;16.80;99.90;;;;;;2077191;28;20032;-65
2021/08/17 00:06:14;;;;;;;18.27;4.88;;;16.80;99.90;;;;;;2086207;28;20024;-65
2021/08/17 00:07:16;;;;;;;21.38;5.95;;;16.80;99.90;;;;;;2087030;28;20057;-65
2021/08/17 00:08:16;;;;;;;23.08;6.63;;;16.80;99.90;;;;;;2086871;28;20510;-65
2021/08/17 00:09:18;;;;;;;17.25;5.38;;;16.80;99.90;;;;;;2086373;28;20029;-65
2021/08/17 00:10:19;;;;;;;22.05;5.78;;;16.80;99.90;;;;;;2086347;28;20021;-65
2021/08/17 00:11:19;;;;;;;14.35;5.40;;;16.70;99.90;;;;;;2086634;28;20118;-65
2021/08/17 00:12:21;;;;;;;17.60;5.45;;;16.80;99.90;;;;;;2085232;28;20559;-65
2021/08/17 00:13:22;;;;;;;15.75;5.10;;;16.70;99.90;;;;;;2081585;28;20032;-65
2021/08/17 00:14:22;;;;;;;13.48;5.22;;;16.70;99.90;;;;;;2080793;28;20529;-65
2021/08/17 00:15:23;;;;;;;22.27;5.60;;;16.70;99.90;;;;;;2081283;28;20020;-65
2021/08/17 00:16:24;;;;;;;14.20;5.72;;;16.70;99.90;;;;;;2081374;28;20021;-65
2021/08/17 00:17:25;;;;;;;17.25;5.60;;;16.70;99.90;;;;;;2081275;28;20386;-66
2021/08/17 00:18:26;;;;;;;15.77;5.47;;;16.70;99.90;;;;;;2080809;28;20025;-65
2021/08/17 00:19:26;;;;;;;19.08;5.80;;;16.70;99.90;;;;;;2072812;28;20591;-66
2021/08/17 00:20:28;;;;;;;13.75;6.03;;;16.80;99.90;;;;;;2078248;28;20032;-65
2021/08/17 00:21:28;;;;;;;18.60;5.32;;;16.70;99.90;;;;;;2077963;28;20454;-64
2021/08/17 00:22:29;;;;;;;18.63;5.75;;;16.70;99.90;;;;;;2081764;28;20022;-65
2021/08/17 00:23:30;;;;;;;16.98;5.57;;;16.70;99.90;;;;;;2080690;28;20108;-65
2021/08/17 00:24:33;;;;;;;16.10;5.00;;;16.70;99.90;;;;;;2072640;28;20109;-65
2021/08/17 00:25:35;;;;;;;13.63;5.10;;;16.70;99.90;;;;;;2070648;28;20053;-65
2021/08/17 00:26:35;;;;;;;;;;;16.70;99.90;;;;;;2081261;28;20096;-65
2021/08/17 00:27:37;;;;;;;14.85;5.32;;;16.70;99.90;;;;;;2081590;28;19952;-64
2021/08/17 00:28:38;;;;;;;16.23;5.07;;;16.70;99.90;;;;;;2081275;28;20026;-65
2021/08/17 00:29:38;;;;;;;19.83;5.03;;;16.70;99.90;;;;;;2080540;28;20045;-64
2021/08/17 00:30:39;;;;;;;15.02;4.53;;;16.70;99.90;;;;;;2072691;28;20076;-65
2021/08/17 00:31:40;;;;;;;11.05;4.68;;;16.70;99.90;;;;;;2077187;28;20033;-65
2021/08/17 00:32:41;;;;;;;22.08;5.63;;;16.70;99.90;;;;;;2077598;28;20034;-65
2021/08/17 00:33:41;;;;;;;18.55;6.75;;;16.70;99.90;;;;;;2078107;28;20052;-65
2021/08/17 00:34:45;;;;;;;18.38;5.38;;;16.70;99.90;;;;;;2086863;28;20074;-64
2021/08/17 00:35:46;;;;;;;23.42;7.00;;;16.70;99.90;;;;;;2081047;28;20037;-65
2021/08/17 00:36:48;;;;;;;16.58;6.00;;;16.70;99.90;;;;;;2080855;28;20021;-66
2021/08/17 00:37:50;;;;;;;21.80;6.50;;;16.70;99.90;;;;;;2081466;28;20116;-66
2021/08/17 00:38:51;;;;;;;17.20;5.45;;;16.70;99.90;;;;;;2078922;28;20064;-64
2021/08/17 00:39:51;;;;;;;19.40;5.88;;;16.70;99.90;;;;;;2080070;28;20410;-65
2021/08/17 00:40:54;;;;;;;18.90;6.22;;;16.70;99.90;;;;;;2081552;28;20021;-65
2021/08/17 00:41:54;;;;;;;21.00;5.72;;;16.70;99.90;;;;;;2077936;28;20225;-65
2021/08/17 00:42:55;;;;;;;18.58;5.88;;;16.70;99.90;;;;;;2080781;28;20025;-64
2021/08/17 00:43:56;;;;;;;20.60;5.53;;;16.70;99.90;;;;;;2080696;28;20036;-65
2021/08/17 00:45:02;;;;;;;17.27;6.40;;;16.70;99.90;;;;;;2081221;28;20029;-65
2021/08/17 00:46:06;;;;;;;19.98;5.72;;;16.70;99.90;;;;;;2080850;28;20509;-65
2021/08/17 00:47:07;;;;;;;19.35;6.00;;;16.70;99.90;;;;;;2080770;28;20038;-65
2021/08/17 00:48:08;;;;;;;25.35;6.30;;;16.70;99.90;;;;;;2080943;28;20022;-65
2021/08/17 00:49:09;;;;;;;18.92;6.70;;;16.60;99.90;;;;;;2072742;28;20054;-65
2021/08/17 00:50:10;;;;;;;17.85;5.70;;;16.70;99.90;;;;;;2073020;28;20041;-65
2021/08/17 00:51:11;;;;;;;20.23;5.82;;;16.70;99.90;;;;;;2078524;28;20050;-65
2021/08/17 00:52:13;;;;;;;19.35;5.78;;;16.60;99.90;;;;;;2081334;28;20109;-65
2021/08/17 00:53:13;;;;;;;27.80;6.10;;;16.60;99.90;;;;;;2080814;28;20033;-65
2021/08/17 00:54:14;;;;;;;19.67;6.35;;;16.60;99.90;;;;;;2078668;28;20097;-65
2021/08/17 00:55:15;;;;;;;15.57;5.68;;;16.60;99.90;;;;;;2080161;28;20041;-65
2021/08/17 00:56:16;;;;;;;14.85;6.20;;;16.60;99.90;;;;;;2081170;28;20018;-65
2021/08/17 00:57:17;;;;;;;22.85;5.90;;;16.60;99.90;;;;;;2088904;28;20452;-65
2021/08/17 00:58:18;;;;;;;20.88;5.72;;;16.60;99.90;;;;;;2096583;28;20050;-65
2021/08/17 00:59:19;;;;;;;19.52;6.05;;;16.60;99.90;;;;;;2081067;28;20048;-65
2021/08/17 01:00:20;;;;;;;16.65;6.10;;;16.60;99.90;;;;;;2080838;28;20033;-65
2021/08/17 01:01:21;;;;;;;25.48;6.20;;;16.60;99.90;;;;;;2080116;28;20028;-65
2021/08/17 01:02:21;;;;;;;18.67;6.07;;;16.60;99.90;;;;;;2076460;28;20117;-65
2021/08/17 01:03:22;;;;;;;18.08;5.75;;;16.60;99.90;;;;;;2091850;28;20070;-65
2021/08/17 01:04:23;;;;;;;15.68;5.72;;;16.60;99.90;;;;;;2094532;28;20013;-65
2021/08/17 01:05:28;;;;;;;19.70;5.75;;;16.60;99.90;;;;;;2071087;28;20030;-65
2021/08/17 01:06:31;;;;;;;24.90;6.20;;;16.60;99.90;;;;;;2073053;28;20409;-65
2021/08/17 01:07:32;;;;;;;14.75;5.63;;;16.60;99.90;;;;;;2080277;28;20477;-65
2021/08/17 01:08:33;;;;;;;15.33;5.43;;;16.60;99.90;;;;;;2080663;28;20156;-65
2021/08/17 01:09:35;;;;;;;22.05;6.18;;;16.50;99.90;;;;;;2077872;28;20283;-65
2021/08/17 01:10:38;;;;;;;;;;;16.60;99.90;;;;;;2079964;28;20021;-66
2021/08/17 01:11:43;;;;;;;20.15;6.10;;;16.50;99.90;;;;;;2080686;28;19992;-65
2021/08/17 01:12:43;;;;;;;18.02;5.82;;;16.50;99.90;;;;;;2081151;28;20032;-65
2021/08/17 01:13:44;;;;;;;13.38;5.10;;;16.50;99.90;;;;;;2081421;28;20025;-66
2021/08/17 01:14:45;;;;;;;17.95;5.45;;;16.50;99.90;;;;;;2080708;28;20077;-65
2021/08/17 01:15:45;;;;;;;22.17;6.05;;;16.50;99.90;;;;;;2081362;28;20017;-65
2021/08/17 01:16:48;;;;;;;20.00;6.63;;;16.50;99.90;;;;;;2074775;28;20547;-65
2021/08/17 01:17:49;;;;;;;12.65;5.30;;;16.50;99.90;;;;;;2073533;28;20561;-65
2021/08/17 01:18:50;;;;;;;16.73;5.63;;;16.50;99.90;;;;;;2077846;28;20030;-65
2021/08/17 01:19:51;;;;;;;14.98;5.03;;;16.40;99.90;;;;;;2080291;28;20030;-66
2021/08/17 01:20:56;;;;;;;19.02;5.60;;;16.50;99.90;;;;;;2073835;28;20441;-65
2021/08/17 01:21:58;;;;;;;26.98;6.68;;;16.40;99.90;;;;;;2072165;28;20114;-65
2021/08/17 01:22:59;;;;;;;21.08;6.80;;;16.40;99.90;;;;;;2071438;28;20069;-65
2021/08/17 01:24:00;;;;;;;16.38;5.68;;;16.40;99.90;;;;;;2072735;28;20580;-65
2021/08/17 01:25:01;;;;;;;15.60;6.07;;;16.40;99.90;;;;;;2075390;28;20057;-65
2021/08/17 01:26:02;;;;;;;19.05;6.28;;;16.50;99.90;;;;;;2079077;28;20033;-65
2021/08/17 01:27:03;;;;;;;16.85;6.22;;;16.50;99.90;;;;;;2078332;28;20032;-65
2021/08/17 01:28:04;;;;;;;20.13;5.93;;;16.50;99.90;;;;;;2085766;28;20589;-65
2021/08/17 01:29:10;;;;;;;20.38;5.97;;;16.50;99.90;;;;;;2081084;28;20026;-65
2021/08/17 01:30:12;;;;;;;23.08;5.95;;;16.40;99.90;;;;;;2077421;28;20018;-65
2021/08/17 01:31:13;;;;;;;21.95;5.85;;;16.50;99.90;;;;;;2077054;28;20033;-65
2021/08/17 01:32:17;;;;;;;20.77;6.53;;;16.40;99.90;;;;;;2080244;28;20468;-65
2021/08/17 01:33:17;;;;;;;17.98;5.15;;;16.50;99.90;;;;;;2072202;28;20120;-65
2021/08/17 01:34:18;;;;;;;19.80;5.90;;;16.50;99.90;;;;;;2078057;28;20022;-65
2021/08/17 01:35:19;;;;;;;15.13;5.15;;;16.50;99.90;;;;;;2081845;28;20037;-65
2021/08/17 01:36:20;;;;;;;16.08;5.55;;;16.50;99.90;;;;;;2080743;28;20068;-65
2021/08/17 01:37:20;;;;;;;20.08;5.75;;;16.50;99.90;;;;;;2073614;28;20423;-65
2021/08/17 01:38:21;;;;;;;17.17;5.72;;;16.50;99.90;;;;;;2077855;28;20040;-64
2021/08/17 01:39:22;;;;;;;11.57;5.47;;;16.40;99.90;;;;;;2076104;28;20037;-65
2021/08/17 01:40:22;;;;;;;16.63;5.82;;;16.40;99.90;;;;;;2078841;28;20064;-65
2021/08/17 01:41:23;;;;;;;18.10;5.88;;;16.40;99.90;;;;;;2079733;28;20680;-65
2021/08/17 01:42:25;;;;;;;16.92;5.50;;;16.40;99.90;;;;;;2080506;28;20088;-65
2021/08/17 01:43:25;;;;;;;21.90;5.03;;;16.40;99.90;;;;;;2080899;28;20021;-65
2021/08/17 01:44:26;;;;;;;19.63;5.57;;;16.40;99.90;;;;;;2071481;28;20026;-65
2021/08/17 01:45:27;;;;;;;16.48;5.40;;;16.40;99.90;;;;;;2078037;28;20104;-65
2021/08/17 01:46:27;;;;;;;16.30;5.57;;;16.40;99.90;;;;;;2074091;28;20018;-65
2021/08/17 01:47:32;;;;;;;13.63;5.07;;;16.40;99.90;;;;;;2072680;28;20168;-65
2021/08/17 01:48:32;;;;;;;17.20;5.95;;;16.40;99.90;;;;;;2073059;28;20072;-65
2021/08/17 01:49:33;;;;;;;17.30;5.50;;;16.40;99.90;;;;;;2078696;28;20444;-65
2021/08/17 01:50:34;;;;;;;21.20;5.28;;;16.40;99.90;;;;;;2076833;28;20018;-65
2021/08/17 01:51:35;;;;;;;17.20;4.97;;;16.40;99.90;;;;;;2079795;28;20038;-65
2021/08/17 01:52:36;;;;;;;18.48;5.55;;;16.40;99.90;;;;;;2079799;28;20018;-65
2021/08/17 01:53:37;;;;;;;13.38;4.70;;;16.40;99.90;;;;;;2081027;28;20630;-65
2021/08/17 01:54:38;;;;;;;13.82;5.00;;;16.50;99.90;;;;;;2080478;28;20081;-65
2021/08/17 01:55:39;;;;;;;15.70;4.97;;;16.40;99.90;;;;;;2079968;28;20037;-65
2021/08/17 01:56:39;;;;;;;17.17;4.80;;;16.40;99.90;;;;;;2080288;28;20029;-65
2021/08/17 01:57:41;;;;;;;15.98;5.35;;;16.40;99.90;;;;;;2080310;28;20017;-65
2021/08/17 01:58:42;;;;;;;13.30;5.25;;;16.40;99.90;;;;;;2080541;28;20044;-65
2021/08/17 01:59:42;;;;;;;20.70;5.10;;;16.40;99.90;;;;;;2079399;28;20026;-65
2021/08/17 02:00:45;;;;;;;17.08;5.45;;;16.50;99.90;;;;;;2072474;28;20460;-65
2021/08/17 02:01:45;;;;;;;14.68;5.07;;;16.40;99.90;;;;;;2077663;28;20045;-65
2021/08/17 02:02:46;;;;;;;16.30;5.55;;;16.40;99.90;;;;;;2077694;28;20017;-65
2021/08/17 02:03:47;;;;;;;14.57;5.15;;;16.40;99.90;;;;;;2079741;28;20467;-65
2021/08/17 02:04:48;;;;;;;19.02;5.30;;;16.40;99.90;;;;;;2079089;28;20160;-66
2021/08/17 02:05:48;;;;;;;15.45;5.35;;;16.40;99.90;;;;;;2081190;28;20055;-65
2021/08/17 02:06:49;;;;;;;20.48;5.93;;;16.40;99.90;;;;;;2081430;28;20088;-65
2021/08/17 02:07:52;;;;;;;13.68;5.25;;;16.40;99.90;;;;;;2080595;28;20032;-65
2021/08/17 02:08:52;;;;;;;12.70;5.22;;;16.40;99.90;;;;;;2071215;28;20041;-65
2021/08/17 02:09:53;;;;;;;19.25;5.93;;;16.40;99.90;;;;;;2079821;28;20048;-65
2021/08/17 02:10:54;;;;;;;14.60;4.88;;;16.40;99.90;;;;;;2088024;28;20079;-65
2021/08/17 02:11:55;;;;;;;11.23;4.88;;;16.40;99.90;;;;;;2088149;28;20086;-65
2021/08/17 02:12:55;;;;;;;12.13;5.10;;;16.40;99.90;;;;;;2080748;28;20037;-65
2021/08/17 02:13:56;;;;;;;12.65;5.30;;;16.40;99.90;;;;;;2080799;28;20021;-65
2021/08/17 02:14:57;;;;;;;12.95;5.05;;;16.40;99.90;;;;;;2079794;28;20030;-66
2021/08/17 02:16:00;;;;;;;12.27;4.85;;;16.40;99.90;;;;;;2080209;28;20026;-65
2021/08/17 02:17:00;;;;;;;24.10;5.45;;;16.40;99.90;;;;;;2076635;28;20038;-65
2021/08/17 02:18:01;;;;;;;14.77;5.05;;;16.40;99.90;;;;;;2082055;28;20061;-64
2021/08/17 02:19:02;;;;;;;16.15;5.45;;;16.40;99.90;;;;;;2080618;28;20033;-65
2021/08/17 02:20:04;;;;;;;19.58;5.63;;;16.40;99.90;;;;;;2078195;28;20033;-65
2021/08/17 02:21:05;;;;;;;19.70;5.15;;;16.40;99.90;;;;;;2072150;28;20040;-65
2021/08/17 02:22:06;;;;;;;16.50;5.45;;;16.40;99.90;;;;;;2079928;28;20520;-65
2021/08/17 02:23:07;;;;;;;12.57;4.78;;;16.30;99.90;;;;;;2076593;28;20021;-66
2021/08/17 02:24:07;;;;;;;12.95;5.45;;;16.30;99.90;;;;;;2080877;28;20584;-65
2021/08/17 02:25:09;;;;;;;13.80;4.78;;;16.30;99.90;;;;;;2079975;28;20018;-65
2021/08/17 02:26:09;;;;;;;16.30;5.05;;;16.30;99.90;;;;;;2077563;28;20017;-65
2021/08/17 02:27:10;;;;;;;16.88;5.10;;;16.30;99.90;;;;;;2086477;28;20055;-65
2021/08/17 02:28:10;;;;;;;13.45;4.80;;;16.30;99.90;;;;;;2083727;28;20517;-65
2021/08/17 02:29:11;;;;;;;13.63;4.50;;;16.30;99.90;;;;;;2080787;28;20058;-65
2021/08/17 02:30:12;;;;;;;10.98;4.60;;;16.30;99.90;;;;;;2077994;28;20075;-65
2021/08/17 02:31:13;;;;;;;10.75;4.60;;;16.30;99.90;;;;;;2077353;28;20021;-66
2021/08/17 02:32:13;;;;;;;12.57;4.63;;;16.30;99.90;;;;;;2080522;28;20059;-66
2021/08/17 02:33:15;;;;;;;11.73;4.57;;;16.30;99.90;;;;;;2080430;28;20504;-65
2021/08/17 02:34:15;;;;;;;16.25;4.78;;;16.30;99.90;;;;;;2086373;28;20021;-65
2021/08/17 02:35:16;;;;;;;16.45;4.30;;;16.30;99.90;;;;;;2082040;28;20033;-65
2021/08/17 02:36:17;;;;;;;26.17;5.43;;;16.30;99.90;;;;;;2080445;28;20022;-65
2021/08/17 02:37:17;;;;;;;18.38;4.38;;;16.30;99.90;;;;;;2077341;28;20401;-65
2021/08/17 02:38:18;;;;;;;14.57;4.50;;;16.30;99.90;;;;;;2079023;28;20151;-65
2021/08/17 02:39:19;;;;;;;14.43;4.70;;;16.30;99.90;;;;;;2080475;28;20029;-65
2021/08/17 02:40:19;;;;;;;10.88;4.65;;;16.30;99.90;;;;;;2080422;28;20026;-65
2021/08/17 02:41:20;;;;;;;18.73;5.00;;;16.30;99.90;;;;;;2079285;28;20075;-65
2021/08/17 02:42:21;;;;;;;13.30;4.75;;;16.30;99.90;;;;;;2070841;28;20375;-65
2021/08/17 02:43:24;;;;;;;16.15;5.43;;;16.40;99.90;;;;;;2074019;28;20033;-65
2021/08/17 02:44:25;;;;;;;15.95;4.75;;;16.30;99.90;;;;;;2079056;28;20017;-65
2021/08/17 02:45:25;;;;;;;13.10;4.18;;;16.30;99.90;;;;;;2077708;28;20093;-65
2021/08/17 02:46:26;;;;;;;16.63;4.35;;;16.40;99.90;;;;;;2080750;28;20477;-65
2021/08/17 02:47:27;;;;;;;12.05;4.90;;;16.40;99.90;;;;;;2079460;28;20140;-65
2021/08/17 02:48:28;;;;;;;11.05;4.10;;;16.40;99.90;;;;;;2080128;28;20025;-65
2021/08/17 02:49:32;;;;;;;15.45;5.07;;;16.40;99.90;;;;;;2074359;28;20736;-65
2021/08/17 02:50:33;;;;;;;15.98;5.03;;;16.40;99.90;;;;;;2071376;28;20022;-65
2021/08/17 02:51:34;;;;;;;12.38;4.53;;;16.40;99.90;;;;;;2072476;28;20026;-65
2021/08/17 02:52:35;;;;;;;14.95;4.50;;;16.40;99.90;;;;;;2073233;28;20029;-66
2021/08/17 02:53:36;;;;;;;12.15;4.20;;;16.40;99.90;;;;;;2079149;28;20381;-65
2021/08/17 02:54:39;;;;;;;16.08;5.05;;;16.40;99.90;;;;;;2080082;28;20032;-65
2021/08/17 02:55:39;;;;;;;16.15;4.97;;;16.40;99.90;;;;;;2076981;28;20485;-65
2021/08/17 02:56:40;;;;;;;15.73;5.05;;;16.40;99.90;;;;;;2073724;28;20025;-65
2021/08/17 02:57:56;;;;;;;11.95;4.07;;;16.30;99.90;;;;;;2080157;28;20604;-65
2021/08/17 02:58:57;;;;;;;11.93;4.65;;;16.30;99.90;;;;;;2080604;28;20021;-64
2021/08/17 02:59:57;;;;;;;13.43;3.97;;;16.30;99.90;;;;;;2080587;28;20469;-65
2021/08/17 03:00:58;;;;;;;12.27;4.53;;;16.30;99.90;;;;;;2074492;28;20032;-65
2021/08/17 03:01:59;;;;;;;19.63;4.18;;;16.30;99.90;;;;;;2078802;28;20566;-65
2021/08/17 03:02:59;;;;;;;14.65;4.20;;;16.30;99.90;;;;;;2075583;28;20013;-65
2021/08/17 03:04:00;;;;;;;10.60;4.25;;;16.30;99.90;;;;;;2072182;28;20032;-66
2021/08/17 03:05:01;;;;;;;15.02;4.53;;;16.30;99.90;;;;;;2079268;28;20024;-66
2021/08/17 03:06:01;;;;;;;14.77;4.03;;;16.30;99.90;;;;;;2078805;28;20029;-64
2021/08/17 03:07:06;;;;;;;10.82;4.03;;;16.30;99.90;;;;;;2071744;28;20030;-64
2021/08/17 03:08:07;;;;;;;11.82;4.13;;;16.30;99.90;;;;;;2075458;28;20024;-65
2021/08/17 03:09:07;;;;;;;14.43;4.60;;;16.30;99.90;;;;;;2076987;28;20032;-64
2021/08/17 03:10:08;;;;;;;13.88;4.32;;;16.30;99.90;;;;;;2079253;28;20580;-65
2021/08/17 03:11:09;;;;;;;14.25;4.97;;;16.30;99.90;;;;;;2071075;28;20094;-65
2021/08/17 03:12:10;;;;;;;12.77;4.68;;;16.30;99.90;;;;;;2079954;28;20666;-65
2021/08/17 03:13:10;;;;;;;17.88;4.88;;;16.30;99.90;;;;;;2075847;28;20022;-65
2021/08/17 03:14:11;;;;;;;15.30;4.38;;;16.30;99.90;;;;;;2071664;28;20121;-65
2021/08/17 03:15:12;;;;;;;9.85;3.45;;;16.30;99.90;;;;;;2078068;28;20026;-65
2021/08/17 03:16:13;;;;;;;12.52;4.55;;;16.30;99.90;;;;;;2079596;28;20408;-65
2021/08/17 03:17:13;;;;;;;13.30;3.97;;;16.30;99.90;;;;;;2077184;28;20033;-64
2021/08/17 03:18:14;;;;;;;17.13;3.85;;;16.20;99.90;;;;;;2077756;28;20025;-65
2021/08/17 03:19:15;;;;;;;15.18;4.60;;;16.20;99.90;;;;;;2080129;28;20045;-65
2021/08/17 03:20:16;;;;;;;10.38;4.10;;;16.20;99.90;;;;;;2077762;28;20077;-65
2021/08/17 03:21:17;;;;;;;12.90;3.42;;;16.20;99.90;;;;;;2079744;28;20024;-65
2021/08/17 03:22:18;;;;;;;13.35;3.55;;;16.10;99.90;;;;;;2080409;28;20032;-65
2021/08/17 03:23:18;;;;;;;12.07;4.57;;;16.10;99.90;;;;;;2079306;28;20021;-65
2021/08/17 03:24:19;;;;;;;17.63;4.28;;;16.10;99.90;;;;;;2077673;28;20021;-64
2021/08/17 03:25:20;;;;;;;9.18;3.90;;;16.00;99.90;;;;;;2079069;28;20057;-65
2021/08/17 03:26:20;;;;;;;13.32;3.80;;;16.10;99.90;;;;;;2071022;28;20056;-65
2021/08/17 03:27:21;;;;;;;13.15;3.80;;;16.10;99.90;;;;;;2071786;28;20045;-64
2021/08/17 03:28:22;;;;;;;14.50;4.00;;;16.10;99.90;;;;;;2074748;28;20025;-65
2021/08/17 03:29:22;;;;;;;13.13;4.40;;;16.10;99.90;;;;;;2071788;28;20018;-65
2021/08/17 03:30:25;;;;;;;13.18;3.63;;;16.10;99.90;;;;;;2079335;28;20029;-65
2021/08/17 03:31:26;;;;;;;13.55;3.80;;;16.10;99.90;;;;;;2073610;28;20068;-65
2021/08/17 03:32:26;;;;;;;13.23;4.15;;;16.10;99.90;;;;;;2079936;28;20017;-66
2021/08/17 03:33:27;;;;;;;13.18;4.07;;;16.20;99.90;;;;;;2080185;28;20017;-64
2021/08/17 03:34:28;;;;;;;12.75;4.13;;;16.10;99.90;;;;;;2087181;28;20017;-65
2021/08/17 03:35:28;;;;;;;15.10;4.10;;;16.10;99.90;;;;;;2079951;28;20033;-64
2021/08/17 03:36:29;;;;;;;11.90;4.32;;;16.10;99.90;;;;;;2076766;28;20403;-65
2021/08/17 03:37:30;;;;;;;11.75;3.90;;;16.10;99.90;;;;;;2085594;28;20436;-64
2021/08/17 03:38:32;;;;;;;11.80;4.10;;;16.20;99.90;;;;;;2077836;28;20026;-65
2021/08/17 03:39:32;;;;;;;9.35;4.30;;;16.20;99.90;;;;;;2072358;28;20093;-65
2021/08/17 03:40:33;;;;;;;12.63;4.03;;;16.20;99.90;;;;;;2076304;28;20452;-65
2021/08/17 03:41:34;;;;;;;13.88;4.05;;;16.20;99.90;;;;;;2078954;28;20017;-65
2021/08/17 03:42:37;;;;;;;13.55;3.83;;;16.20;99.90;;;;;;2080413;28;20187;-65
2021/08/17 03:43:38;;;;;;;12.23;3.72;;;16.20;99.90;;;;;;2079426;28;20548;-65
2021/08/17 03:44:38;;;;;;;15.18;4.18;;;16.20;99.90;;;;;;2071797;28;20145;-65
2021/08/17 03:45:39;;;;;;;17.52;4.25;;;16.20;99.90;;;;;;2079603;28;20022;-65
2021/08/17 03:46:40;;;;;;;13.32;4.22;;;16.20;99.90;;;;;;2077603;28;20445;-65
2021/08/17 03:47:41;;;;;;;11.65;4.13;;;16.20;99.90;;;;;;2078796;28;20018;-64
2021/08/17 03:48:42;;;;;;;15.70;4.32;;;16.20;99.90;;;;;;2080339;28;20021;-64
2021/08/17 03:49:42;;;;;;;13.68;3.88;;;16.20;99.90;;;;;;2079881;28;20033;-64
2021/08/17 03:50:43;;;;;;;13.75;3.80;;;16.20;99.90;;;;;;2080935;28;20030;-65
2021/08/17 03:51:44;;;;;;;12.40;4.20;;;16.20;99.90;;;;;;2081315;28;20381;-65
2021/08/17 03:52:45;;;;;;;14.63;4.70;;;16.20;99.90;;;;;;2081068;28;20306;-65
2021/08/17 03:53:46;;;;;;;11.80;3.83;;;16.20;99.90;;;;;;2078811;28;20026;-65
2021/08/17 03:54:47;;;;;;;13.32;3.90;;;16.20;99.90;;;;;;2080070;28;20029;-65
2021/08/17 03:55:47;;;;;;;9.50;3.92;;;16.20;99.90;;;;;;2074672;28;20516;-65
2021/08/17 03:56:48;;;;;;;13.05;3.72;;;16.20;99.90;;;;;;2074147;28;20045;-65
2021/08/17 03:57:49;;;;;;;16.20;4.03;;;16.20;99.90;;;;;;2077414;28;20044;-65
2021/08/17 03:58:50;;;;;;;11.57;4.30;;;16.20;99.90;;;;;;2074874;28;20576;-65
2021/08/17 03:59:51;;;;;;;13.05;4.10;;;16.20;99.90;;;;;;2079112;28;20056;-65
2021/08/17 04:00:51;;;;;;;11.32;4.05;;;16.20;99.90;;;;;;2079779;28;20062;-65
2021/08/17 04:01:52;;;;;;;12.00;3.72;;;16.20;99.90;;;;;;2071432;28;20125;-66
2021/08/17 04:02:54;;;;;;;12.43;3.92;;;16.20;99.90;;;;;;2076786;28;20021;-65
2021/08/17 04:03:55;;;;;;;12.85;4.35;;;16.20;99.90;;;;;;2081670;28;20030;-65
2021/08/17 04:04:55;;;;;;;10.23;3.67;;;16.20;99.90;;;;;;2079623;28;20156;-65
2021/08/17 04:05:56;;;;;;;10.32;4.28;;;16.10;99.90;;;;;;2081577;28;20021;-65
2021/08/17 04:06:57;;;;;;;15.48;4.07;;;16.20;99.90;;;;;;2081784;28;20481;-65
2021/08/17 04:07:57;;;;;;;13.07;3.85;;;16.20;99.90;;;;;;2077972;28;20072;-65
2021/08/17 04:08:58;;;;;;;14.18;3.95;;;16.20;99.90;;;;;;2070746;28;20021;-64
2021/08/17 04:09:59;;;;;;;17.77;4.10;;;16.20;99.90;;;;;;2078905;28;20053;-64
2021/08/17 04:10:59;;;;;;;12.80;3.95;;;16.20;99.90;;;;;;2081035;28;20436;-64
2021/08/17 04:12:00;;;;;;;9.07;3.38;;;16.20;99.90;;;;;;2081727;28;20045;-66
2021/08/17 04:13:00;;;;;;;13.65;3.63;;;16.10;99.90;;;;;;2076719;28;20025;-64
2021/08/17 04:14:01;;;;;;;11.95;4.07;;;16.10;99.90;;;;;;2081245;28;20037;-65
2021/08/17 04:15:03;;;;;;;13.32;3.90;;;16.10;99.90;;;;;;2081083;28;20018;-65
2021/08/17 04:16:04;;;;;;;;;;;16.10;99.90;;;;;;2081211;28;20030;-64
2021/08/17 04:17:04;;;;;;;16.30;4.00;;;16.10;99.90;;;;;;2064242;28;19910;-65
2021/08/17 04:18:05;;;;;;;14.30;3.67;;;16.10;99.90;;;;;;2067102;28;20080;-64
2021/08/17 04:19:06;;;;;;;13.55;3.72;;;16.10;99.90;;;;;;2080934;28;20085;-64
2021/08/17 04:20:09;;;;;;;11.60;3.53;;;16.10;99.90;;;;;;2080971;28;20026;-65
2021/08/17 04:21:10;;;;;;;13.98;3.80;;;16.10;99.90;;;;;;2072778;28;20579;-65
2021/08/17 04:22:11;;;;;;;14.43;3.70;;;16.10;99.90;;;;;;2081080;28;20032;-65
2021/08/17 04:23:11;;;;;;;16.08;4.55;;;16.10;99.90;;;;;;2081641;28;20021;-65
2021/08/17 04:24:12;;;;;;;13.00;3.70;;;16.10;99.90;;;;;;2080764;28;20101;-65
2021/08/17 04:25:13;;;;;;;11.45;3.53;;;16.20;99.90;;;;;;2080240;28;20588;-65
2021/08/17 04:26:13;;;;;;;11.82;3.33;;;16.10;99.90;;;;;;2078220;28;20025;-65
2021/08/17 04:27:15;;;;;;;12.50;3.60;;;16.10;99.90;;;;;;2081459;28;20026;-65
2021/08/17 04:28:15;;;;;;;10.63;3.55;;;16.10;99.90;;;;;;2080698;28;20018;-65
2021/08/17 04:29:16;;;;;;;14.32;3.45;;;16.10;99.90;;;;;;2072498;28;20088;-65
2021/08/17 04:30:17;;;;;;;15.10;4.18;;;16.10;99.90;;;;;;2078461;28;20108;-65
2021/08/17 04:31:17;;;;;;;10.43;4.03;;;16.10;99.90;;;;;;2078603;28;20398;-65
2021/08/17 04:32:18;;;;;;;14.70;4.25;;;16.10;99.90;;;;;;2073468;28;20075;-65
2021/08/17 04:33:19;;;;;;;10.05;3.30;;;16.10;99.90;;;;;;2080228;28;20057;-65
2021/08/17 04:34:19;;;;;;;13.43;3.83;;;16.10;99.90;;;;;;2071862;28;20029;-65
2021/08/17 04:35:20;;;;;;;10.52;4.00;;;16.10;99.90;;;;;;2072557;28;20061;-65
2021/08/17 04:36:21;;;;;;;11.45;3.92;;;16.10;99.90;;;;;;2074480;28;20025;-65
2021/08/17 04:37:22;;;;;;;11.82;3.58;;;16.10;99.90;;;;;;2077998;28;20025;-65
2021/08/17 04:38:22;;;;;;;10.05;3.38;;;16.00;99.90;;;;;;2080329;28;21075;-65
2021/08/17 04:39:23;;;;;;;10.52;3.80;;;16.00;99.90;;;;;;2080880;28;20033;-65
2021/08/17 04:40:24;;;;;;;10.88;3.33;;;16.00;99.90;;;;;;2079535;28;20481;-65
2021/08/17 04:41:25;;;;;;;14.23;3.47;;;16.00;99.90;;;;;;2073661;28;20482;-65
2021/08/17 04:42:25;;;;;;;14.75;3.90;;;16.00;99.90;;;;;;2080650;28;20121;-65
2021/08/17 04:43:26;;;;;;;11.07;4.10;;;16.00;99.90;;;;;;2080973;28;20021;-65
2021/08/17 04:44:27;;;;;;;14.48;3.92;;;16.00;99.90;;;;;;2077948;28;20040;-65
2021/08/17 04:45:28;;;;;;;11.27;3.35;;;16.00;99.90;;;;;;2080284;28;20025;-65
2021/08/17 04:46:28;;;;;;;13.48;3.97;;;16.00;99.90;;;;;;2075171;28;20014;-65
2021/08/17 04:47:29;;;;;;;11.75;4.00;;;16.00;99.90;;;;;;2076234;28;20021;-65
2021/08/17 04:48:30;;;;;;;11.98;3.30;;;16.00;99.90;;;;;;2080891;28;20021;-65
2021/08/17 04:49:31;;;;;;;13.25;4.47;;;16.00;99.90;;;;;;2081068;28;20021;-65
2021/08/17 04:50:32;;;;;;;13.40;4.03;;;16.00;99.90;;;;;;2080731;28;20107;-65
2021/08/17 04:51:33;;;;;;;13.65;4.15;;;16.10;99.90;;;;;;2080776;28;20030;-65
2021/08/17 04:52:34;;;;;;;11.20;3.42;;;16.10;99.90;;;;;;2072527;28;20031;-65
2021/08/17 04:53:35;;;;;;;11.68;3.80;;;16.10;99.90;;;;;;2079486;28;20034;-65
2021/08/17 04:54:38;;;;;;;8.98;3.63;;;16.10;99.90;;;;;;2077477;28;20017;-65
2021/08/17 04:55:39;;;;;;;9.90;3.15;;;16.10;99.90;;;;;;2072169;28;20052;-65
2021/08/17 04:56:39;;;;;;;15.15;3.83;;;16.10;99.90;;;;;;2080791;28;20057;-65
2021/08/17 04:57:47;;;;;;;14.15;3.85;;;16.10;99.90;;;;;;2080415;28;20666;-65
2021/08/17 04:58:48;;;;;;;15.75;4.20;;;16.10;99.90;;;;;;2065129;28;20101;-65
2021/08/17 04:59:49;;;;;;;11.07;3.47;;;16.10;99.90;;;;;;2075211;28;20021;-65
2021/08/17 05:00:50;;;;;;;8.93;3.22;;;16.10;99.90;;;;;;2073736;28;20025;-65
2021/08/17 05:01:51;;;;;;;11.95;3.50;;;16.10;99.90;;;;;;2080740;28;20052;-65
2021/08/17 05:02:51;;;;;;;14.30;3.30;;;16.20;99.90;;;;;;2080552;28;20365;-65
2021/08/17 05:03:52;;;;;;;10.32;3.72;;;16.10;99.90;;;;;;2072344;28;20526;-65
2021/08/17 05:04:53;;;;;;;9.77;3.55;;;16.20;99.90;;;;;;2070175;28;20029;-65
2021/08/17 05:05:53;;;;;;;17.00;3.90;;;16.20;99.90;;;;;;2069870;28;20045;-65
2021/08/17 05:06:54;;;;;;;11.73;3.97;;;16.20;99.90;;;;;;2078611;28;20022;-65
2021/08/17 05:07:55;;;;;;;12.75;3.22;;;16.20;99.90;;;;;;2080871;28;20045;-65
2021/08/17 05:08:55;;;;;;;10.38;3.15;;;16.20;99.90;;;;;;2081192;28;20124;-65
2021/08/17 05:09:58;;;;;;;11.93;3.58;;;16.20;99.90;;;;;;2077858;28;20117;-65
2021/08/17 05:10:59;;;;;;;9.38;3.08;;;16.20;99.90;;;;;;2079654;28;20017;-65
2021/08/17 05:11:59;;;;;;;12.82;3.17;;;16.20;99.90;;;;;;2081088;28;20021;-65
2021/08/17 05:13:02;;;;;;;8.77;2.90;;;16.20;99.90;;;;;;2077321;28;20026;-65
2021/08/17 05:14:03;;;;;;;11.82;3.55;;;16.10;99.90;;;;;;2072360;28;20378;-65